Archival Weather

Fukuoka

Fukuoka, Japan (RJFF)

Report from: Tuesday, August 16, 2022 4:13 PM JST
Current time: Sunday, November 27, 2022 5:37 PM JST

Current weather
Weather history
Weather forecast

Present weatherLight thunderstorm with rain
Temperature27.0°C (80.6°F)
Heat index30.6°C (87.0°F)
Dew point25.0°C (77.0°F)
Winds 12 kts (6.2 m/s, 13.8 mph) Vrb
Winds variableWinds variable from Southeast (130°) to South-Southwest (200°)
Visibility6.2 mi. (10 km)
Clouds Few clouds 200 ft. (61 m)
Few clouds with cumulonimbus 3,000 ft. (914 m)
Scattered clouds 4,000 ft. (1,219 m)
Ceiling: Broken clouds 5,000 ft. (1,524 m)
Altimeter29.71 in.Hg (1006 mB)
Precip. events C 4:01 PM
Relative humidity89 %
Density altitude2,051 ft. (625 m)
Remarks Special weather observation
Thunderstorm south moving northeast
Flight conditions Visual Meteorological Conditions
Raw dataSPJP31 KWBC 160724 SPECI RJFF 160713Z 16012KT 130V200 9999 R16/0800VP2000U -TSRA FEW002 FEW030CB SCT040 BKN050 27/25 Q1006 RMK 1ST002 1CB030 3CU040 5SC050 A2973 FBL TS 15KM S MOV NE
An error has occurred. This application may no longer respond until reloaded. Reload 🗙